Terminal Aerodrome Forecast
Issued by NWS

Home | Current Version | Previous Version | Text Only | Print | Product List | Glossary On
Versions: 1 2 3 4 5 6 7 8 9 10 11 12 13
453
FTUS45 KGGW 130528
TAFSDY
TAF
KSDY 130528Z 1306/1406 14009KT P6SM VCSH SCT020 BKN040
      TEMPO 1306/1309 3SM -SN SCT010 OVC025
     FM130900 14008KT P6SM OVC035
     FM131800 18008KT P6SM VCSH SCT030 BKN060
     FM132200 25008KT P6SM -RA OVC020
     FM140300 26008KT P6SM VCSH BKN045
      AMD LTD TO CLD VIS AND WIND=

USA.gov is the U.S. government's official web portal to all federal, state and local government web resources and services.